Marquette, MI

4:55 AM EST on January 23, 2017 (GMT -0500)
City Center South | | Change Station
Active Advisory: Special Statement

Elev 730 ft 46.54 °N, 87.40 °W | Updated 11 seconds ago

Overcast
Overcast
34.8 °F
Feels Like 35 °F
N
0.0
Wind Variable Wind from NW
Gusts 0.0 mph

Today
High -- | Low -- °F
--% Chance of Precip.
Yesterday
High -- | Low -- °F
Precip. -- in
Pressure 29.71 in
Visibility 1.0 miles
Clouds Overcast 200 ft
Windchill 35 °F
Dew Point 34 °F
Humidity 98%
Rainfall 0.00 in
Snow Depth Not available.
8:22 AM 5:40 PM
Waning Crescent, 19% visible
METAR KSAW 230936Z AUTO 00000KT 1SM BR OVC002 01/01 A2971 RMK AO2 T00050005
Pressure 29.71 in
Visibility 1.0 miles
Clouds Overcast 200 ft
Windchill 35 °F
Dew Point 34 °F
Humidity 98%
Rainfall 0.00 in
Snow Depth Not available.
8:22 AM 5:40 PM
Waning Crescent, 19% visible
METAR KSAW 230936Z AUTO 00000KT 1SM BR OVC002 01/01 A2971 RMK AO2 T00050005

Get Your Daily Forecast Email!

Thanks for signing up!

Be on the lookout for a verification email in your inbox.

You'll start receiving the daily forecast at 8 AM.

×

10-Day Weather Forecast

Almanac

Astronomy

Jan. 23, 2017 Rise Set
Actual Time
Civil Twilight
Nautical Twilight
Astronomical Twilight
Moon
Length of Visible Light
Length of Day
Tomorrow will be .
, % of the Moon is Illuminated

Today's Extremes

State Highs State Lows

Community

WunderPhotos

Upload Photos

1,962,540 photos uploaded!

WunderBlog® & News

Nearby

Air Quality

  Air Quality AQ Index Pollutant
Not available.

Snow Depth

Station Depth Elevation

Earthquake Activity

City Distance Mag. Time & Date
Minimum magnitude displayed is 2.5.

Coastal Water Temperatures

Place Temperature

Stations

Nearby Weather Stations

Station Location Temp. Windchill Dew Point Humidity Wind Precip. Elev Updated Type
                   

Watches & Warnings

Special Statement
Issued: 9:36 PM CST Jan. 22, 2017 – National Weather Service

... Patchy dense fog and some drizzle into Monday morning...

Expect patchy dense fog into Monday morning as a moist airmass
and light winds linger over Upper Michigan. There could also be
light drizzle at times. The combination of the fog... drizzle and
temperatures falling near the freezing mark tonight will lead to
black ice on untreated roads... sidewalks and parking lots into
Monday morning. If you encounter dense fog while driving
overnight... be sure to use you low beam headlights.


Kc

1036 PM EST sun Jan 22 2017 /936 PM CST sun Jan 22 2017/

... Patchy dense fog and some drizzle into Monday morning...

Expect patchy dense fog into Monday morning as a moist airmass
and light winds linger over Upper Michigan. There could also be
light drizzle at times. The combination of the fog... drizzle and
temperatures falling near the freezing mark tonight will lead to
black ice on untreated roads... sidewalks and parking lots into
Monday morning. If you encounter dense fog while driving
overnight... be sure to use you low beam headlights.


Kc